Sitka Rocky Gutierrez Airport Sitka US
ICAO: PASI
IATA:
Category: Medium
Scheduled Services:

Elevation: 21 ft
TransAlt. 18000 ft.

Airport Communications:
ATIS:135.9
ANCHORAGE CNTR:126.1
CTAF:123.6
RDO:123.6
TWEB:113.8
SITKA AIR:34.5
UNICOM:122.95

PASI Zoom In..

Runways:

(A) RW 11 length 6500 ft width 150 ft
---- / hdg 116

(B) RW 29 length 6500 ft width 150 ft
---- / hdg 296

Location; PASI
Day. 04 / Time. 00.53 Zulu
* Altimeter: 29.68
* Temperature: 07° c. 44.6°f.
* Wind from: 000° Speed 00 kn.
Dewpoint: 06° c.
Visibility: 7 Statute Miles.
Clouds: Overcast 4200 ft.
Conditions: Light Rain.

PASI 040053Z 00000KT 7SM -RA OVC042 07/06 A2968 RMK AO2 RAB20 SLP049 P0001 T00670056

Going to: --> -->


Wind - Calm.

 
 
jpsmedia worldairports.se 2020   terms of use